createdAt,value
2018-11-14T00:01:54.560Z,59.81
2018-11-14T00:04:26.525Z,59.04
2018-11-14T00:06:58.976Z,59.09
2018-11-14T00:09:46.435Z,59.32
2018-11-14T00:12:18.522Z,61.94
2018-11-14T00:14:50.517Z,63.91
2018-11-14T00:17:22.357Z,65.48
2018-11-14T00:19:54.638Z,67.25
2018-11-14T00:22:26.259Z,68.32
2018-11-14T00:24:58.220Z,67.78
2018-11-14T00:27:30.252Z,69.50
2018-11-14T00:30:02.051Z,67.01
2018-11-14T00:32:34.098Z,68.33
2018-11-14T00:35:06.077Z,67.78
2018-11-14T00:37:38.604Z,67.03
2018-11-14T00:40:12.698Z,67.15
2018-11-14T00:42:45.985Z,68.17
2018-11-14T00:45:19.268Z,66.96
2018-11-14T00:47:51.633Z,64.98
2018-11-14T00:50:24.020Z,66.17
2018-11-14T00:52:56.551Z,64.71
2018-11-14T00:55:28.448Z,64.18
2018-11-14T00:58:00.306Z,63.53
2018-11-14T01:00:32.475Z,63.78
2018-11-14T01:03:04.445Z,63.08
2018-11-14T01:05:36.243Z,64.80
2018-11-14T01:08:09.092Z,65.06
2018-11-14T01:10:40.842Z,64.52
2018-11-14T01:13:12.894Z,62.51
2018-11-14T01:15:45.055Z,62.08
2018-11-14T01:18:17.301Z,63.05
2018-11-14T01:20:49.273Z,62.65
2018-11-14T01:23:21.593Z,62.45
2018-11-14T01:25:53.475Z,64.95
2018-11-14T01:28:26.152Z,64.55
2018-11-14T01:30:58.394Z,63.78
2018-11-14T01:33:30.361Z,63.20
2018-11-14T01:36:02.043Z,63.76
2018-11-14T01:38:34.216Z,63.38
2018-11-14T01:41:05.786Z,58.71
2018-11-14T01:43:37.416Z,58.67
2018-11-14T01:46:08.929Z,59.47
2018-11-14T01:48:41.474Z,58.92
2018-11-14T01:51:12.995Z,60.24
2018-11-14T01:53:45.100Z,60.94
2018-11-14T01:56:16.774Z,61.57
2018-11-14T01:58:48.338Z,64.75
2018-11-14T02:01:19.863Z,62.81
2018-11-14T02:03:51.709Z,65.96
2018-11-14T02:06:23.431Z,65.21
2018-11-14T02:08:55.409Z,65.20
2018-11-14T02:11:27.622Z,64.20
2018-11-14T02:13:59.495Z,62.87
2018-11-14T02:16:30.994Z,62.43
2018-11-14T02:19:02.840Z,62.55
2018-11-14T02:21:35.263Z,61.35
2018-11-14T02:24:07.070Z,61.34
2018-11-14T02:26:38.607Z,61.52
2018-11-14T02:29:10.343Z,60.97
2018-11-14T02:31:41.951Z,61.65
2018-11-14T02:34:14.657Z,61.36
2018-11-14T02:36:46.329Z,61.76
2018-11-14T02:39:18.280Z,61.40
2018-11-14T02:41:51.867Z,62.15
2018-11-14T02:44:23.535Z,61.28
2018-11-14T02:46:55.135Z,62.19
2018-11-14T02:49:26.892Z,61.38
2018-11-14T02:51:58.517Z,61.96
2018-11-14T02:54:30.737Z,61.53
2018-11-14T02:57:02.471Z,61.87
2018-11-14T02:59:34.174Z,61.73
2018-11-14T03:02:06.851Z,62.83
2018-11-14T03:04:38.637Z,66.70
2018-11-14T03:07:10.280Z,69.51
2018-11-14T03:09:43.639Z,67.84
2018-11-14T03:12:15.254Z,66.97
2018-11-14T03:14:47.064Z,67.30
2018-11-14T03:17:18.807Z,67.34
2018-11-14T03:19:50.386Z,68.04
2018-11-14T03:22:22.043Z,69.63
2018-11-14T03:24:53.625Z,66.05
2018-11-14T03:27:25.160Z,65.61
2018-11-14T03:29:56.879Z,65.93
2018-11-14T03:32:30.103Z,67.14
2018-11-14T03:35:02.162Z,66.15
2018-11-14T03:37:33.952Z,64.51
2018-11-14T03:40:06.623Z,64.68
2018-11-14T03:42:38.128Z,64.25
2018-11-14T03:45:11.677Z,63.94
2018-11-14T03:47:43.772Z,63.78
2018-11-14T03:50:15.398Z,63.90
2018-11-14T03:52:46.974Z,63.57
2018-11-14T03:55:19.223Z,62.61
2018-11-14T03:57:50.706Z,63.38
2018-11-14T04:00:22.330Z,63.05
2018-11-14T04:02:54.828Z,61.61
2018-11-14T04:05:26.548Z,63.03
2018-11-14T04:07:58.401Z,62.71
2018-11-14T04:10:31.006Z,61.45
2018-11-14T04:13:02.825Z,60.71
2018-11-14T04:15:34.748Z,60.75
2018-11-14T04:18:06.277Z,60.61
2018-11-14T04:20:37.975Z,61.23
2018-11-14T04:23:09.706Z,62.33
2018-11-14T04:25:42.170Z,59.39
2018-11-14T04:28:13.832Z,60.10
2018-11-14T04:30:47.076Z,60.57
2018-11-14T04:33:23.707Z,60.66
2018-11-14T04:35:59.788Z,59.80
2018-11-14T04:38:34.037Z,57.66
2018-11-14T04:41:06.126Z,58.63
2018-11-14T04:43:37.886Z,58.71
2018-11-14T04:46:09.702Z,57.96
2018-11-14T04:48:42.347Z,57.34
2018-11-14T04:51:14.534Z,57.63
2018-11-14T04:53:46.561Z,57.61
2018-11-14T04:56:19.237Z,56.85
2018-11-14T04:58:52.200Z,57.57
2018-11-14T05:01:27.423Z,57.79
2018-11-14T05:04:00.154Z,56.30
2018-11-14T05:06:31.930Z,56.20
2018-11-14T05:09:07.114Z,56.05
2018-11-14T05:11:39.174Z,54.92
2018-11-14T05:14:11.193Z,55.20
2018-11-14T05:16:43.112Z,54.95
2018-11-14T05:19:15.375Z,55.04
2018-11-14T05:21:47.554Z,53.91
2018-11-14T05:24:19.200Z,52.37
2018-11-14T05:26:51.337Z,53.05
2018-11-14T05:29:23.880Z,53.74
2018-11-14T05:31:55.465Z,52.65
2018-11-14T05:34:27.294Z,51.88
2018-11-14T05:37:05.714Z,51.51
2018-11-14T05:39:37.261Z,51.00
2018-11-14T05:42:09.493Z,50.80
2018-11-14T05:44:41.738Z,50.14
2018-11-14T05:47:13.653Z,50.03
2018-11-14T05:49:45.353Z,50.76
2018-11-14T05:52:16.971Z,51.01
2018-11-14T05:54:49.538Z,51.67
2018-11-14T05:57:21.650Z,52.93
2018-11-14T05:59:53.147Z,50.87
2018-11-14T06:02:24.883Z,50.32
2018-11-14T06:04:56.700Z,51.37
2018-11-14T06:07:28.356Z,51.13
2018-11-14T06:09:59.939Z,50.54
2018-11-14T06:12:32.462Z,50.65
2018-11-14T06:15:04.225Z,49.72
2018-11-14T06:17:36.057Z,48.93
2018-11-14T06:20:08.745Z,49.43
2018-11-14T06:22:40.522Z,49.05
2018-11-14T06:25:28.575Z,50.06
2018-11-14T06:28:01.129Z,50.93
2018-11-14T06:30:33.113Z,50.28
2018-11-14T06:33:06.187Z,50.77
2018-11-14T06:35:37.958Z,46.84
2018-11-14T06:38:09.804Z,47.77
2018-11-14T06:40:43.754Z,47.97
2018-11-14T06:43:16.011Z,47.36
2018-11-14T06:45:47.641Z,48.06
2018-11-14T06:48:19.499Z,46.81
2018-11-14T06:50:51.245Z,48.83
2018-11-14T06:53:23.070Z,47.40
2018-11-14T06:55:54.867Z,48.79
2018-11-14T06:58:28.123Z,47.12
2018-11-14T07:00:59.956Z,46.21
2018-11-14T07:03:32.008Z,46.46
2018-11-14T07:06:03.972Z,47.79
2018-11-14T07:08:36.103Z,48.28
2018-11-14T07:11:08.355Z,47.56
2018-11-14T07:13:40.807Z,48.88
2018-11-14T07:16:12.501Z,47.59
2018-11-14T07:18:44.405Z,47.01
2018-11-14T07:21:16.246Z,48.38
2018-11-14T07:23:48.140Z,48.50
2018-11-14T07:26:20.143Z,48.52
2018-11-14T07:28:52.090Z,48.49
2018-11-14T07:31:23.712Z,49.47
2018-11-14T07:33:55.276Z,47.31
2018-11-14T07:36:26.814Z,48.74
2018-11-14T07:38:58.553Z,47.91
2018-11-14T07:41:33.875Z,48.62
2018-11-14T07:44:06.557Z,47.22
2018-11-14T07:46:38.677Z,45.68
2018-11-14T07:49:10.575Z,46.17
2018-11-14T07:51:42.456Z,45.59
2018-11-14T07:54:14.171Z,44.65
2018-11-14T07:56:45.752Z,45.75
2018-11-14T07:59:17.751Z,44.43
2018-11-14T08:01:49.178Z,45.20
2018-11-14T08:04:20.920Z,45.24
2018-11-14T08:06:52.487Z,49.08
2018-11-14T08:09:24.241Z,45.76
2018-11-14T08:11:56.045Z,46.85
2018-11-14T08:14:28.542Z,47.06
2018-11-14T08:17:00.335Z,46.15
2018-11-14T08:19:32.631Z,41.93
2018-11-14T08:22:04.209Z,43.92
2018-11-14T08:24:35.778Z,43.88
2018-11-14T08:27:07.585Z,41.64
2018-11-14T08:29:39.249Z,42.84
2018-11-14T08:32:10.702Z,44.20
2018-11-14T08:34:42.496Z,44.10
2018-11-14T08:37:14.233Z,43.58
2018-11-14T08:39:46.986Z,44.36
2018-11-14T08:42:18.541Z,43.13
2018-11-14T08:44:50.747Z,43.41
2018-11-14T08:47:22.354Z,43.64
2018-11-14T08:49:54.162Z,44.41
2018-11-14T08:52:25.601Z,41.73
2018-11-14T08:54:57.249Z,42.82
2018-11-14T08:57:28.833Z,41.66
2018-11-14T09:00:00.931Z,42.62
2018-11-14T09:02:33.603Z,42.58
2018-11-14T09:05:05.538Z,42.85
2018-11-14T09:07:37.452Z,42.96
2018-11-14T09:10:12.781Z,41.29
2018-11-14T09:12:46.612Z,41.67
2018-11-14T09:15:20.352Z,41.62
2018-11-14T09:17:52.074Z,42.39
2018-11-14T09:20:26.353Z,42.24
2018-11-14T09:22:58.189Z,42.85
2018-11-14T09:25:31.830Z,42.44
2018-11-14T09:28:04.186Z,41.88
2018-11-14T09:30:35.821Z,42.16
2018-11-14T09:33:07.686Z,43.19
2018-11-14T09:35:39.611Z,43.03
2018-11-14T09:38:11.530Z,40.64
2018-11-14T09:40:43.590Z,42.17
2018-11-14T09:43:17.325Z,41.60
2018-11-14T09:45:49.721Z,41.49
2018-11-14T09:48:22.388Z,41.39
2018-11-14T09:50:54.373Z,42.42
2018-11-14T09:53:26.093Z,41.75
2018-11-14T09:55:59.103Z,42.59
2018-11-14T09:58:30.789Z,41.95
2018-11-14T10:01:03.256Z,40.87
2018-11-14T10:03:35.051Z,41.40
2018-11-14T10:06:07.209Z,42.62
2018-11-14T10:08:38.811Z,42.36
2018-11-14T10:11:10.767Z,41.45
2018-11-14T10:13:43.379Z,41.77
2018-11-14T10:16:15.487Z,40.72
2018-11-14T10:18:47.136Z,41.29
2018-11-14T10:21:20.432Z,42.13
2018-11-14T10:23:52.124Z,41.18
2018-11-14T10:26:23.842Z,41.31
2018-11-14T10:28:55.383Z,42.48
2018-11-14T10:31:27.072Z,42.59
2018-11-14T10:33:58.809Z,40.97
2018-11-14T10:36:30.518Z,41.83
2018-11-14T10:39:02.192Z,41.99
2018-11-14T10:41:33.941Z,41.94
2018-11-14T10:44:05.589Z,41.66
2018-11-14T10:46:38.161Z,43.13
2018-11-14T10:49:09.837Z,43.51
2018-11-14T10:51:41.590Z,43.12
2018-11-14T10:54:13.160Z,43.84
2018-11-14T10:56:45.120Z,42.57
2018-11-14T10:59:16.881Z,42.52
2018-11-14T11:01:53.079Z,43.21
2018-11-14T11:05:28.921Z,44.04
2018-11-14T11:08:05.462Z,44.04
2018-11-14T11:10:41.635Z,42.74
2018-11-14T11:15:19.990Z,41.76
2018-11-14T11:18:05.439Z,44.08
2018-11-14T11:20:37.250Z,45.81
2018-11-14T11:23:09.524Z,46.45
2018-11-14T11:25:41.570Z,46.05
2018-11-14T11:28:14.067Z,47.31
2018-11-14T11:30:45.934Z,46.77
2018-11-14T11:33:17.514Z,47.29
2018-11-14T11:35:49.325Z,47.39
2018-11-14T11:38:21.137Z,48.11
2018-11-14T11:40:52.822Z,47.75
2018-11-14T11:43:24.507Z,48.10
2018-11-14T11:45:56.234Z,47.65
2018-11-14T11:48:29.320Z,47.94
2018-11-14T11:51:01.361Z,48.85
2018-11-14T11:53:32.932Z,47.88
2018-11-14T11:56:04.634Z,48.03
2018-11-14T11:58:36.305Z,48.18
2018-11-14T12:01:08.218Z,48.19
2018-11-14T12:03:39.888Z,49.15
2018-11-14T12:06:11.938Z,48.19
2018-11-14T12:08:44.470Z,49.97
2018-11-14T12:11:16.188Z,49.71
2018-11-14T12:13:47.929Z,51.09
2018-11-14T12:16:19.782Z,52.77
2018-11-14T12:18:51.802Z,52.49
2018-11-14T12:21:23.432Z,53.01
2018-11-14T12:23:57.447Z,52.81
2018-11-14T12:26:29.521Z,53.32
2018-11-14T12:29:01.472Z,53.71
2018-11-14T12:31:34.249Z,54.18
2018-11-14T12:34:06.599Z,55.62
2018-11-14T12:36:38.403Z,54.90
2018-11-14T12:39:12.139Z,54.05
2018-11-14T12:41:43.865Z,53.76
2018-11-14T12:44:15.535Z,55.24
2018-11-14T12:46:47.194Z,54.98
2018-11-14T12:49:19.197Z,55.27
2018-11-14T12:51:50.801Z,55.30
2018-11-14T12:54:22.305Z,56.28
2018-11-14T12:56:54.218Z,54.28
2018-11-14T12:59:26.256Z,54.94
2018-11-14T13:01:58.717Z,54.95
2018-11-14T13:04:32.613Z,55.27
2018-11-14T13:07:06.186Z,55.02
2018-11-14T13:09:38.837Z,54.97
2018-11-14T13:12:10.839Z,55.33
2018-11-14T13:14:42.573Z,55.34
2018-11-14T13:17:14.238Z,55.60
2018-11-14T13:19:46.490Z,56.41
2018-11-14T13:22:19.576Z,55.53
2018-11-14T13:24:52.047Z,55.99
2018-11-14T13:27:23.806Z,57.21
2018-11-14T13:29:55.310Z,55.83
2018-11-14T13:32:26.997Z,57.10
2018-11-14T13:34:58.833Z,56.40
2018-11-14T13:37:30.492Z,55.93
2018-11-14T13:40:02.241Z,55.83
2018-11-14T13:42:34.016Z,54.84
2018-11-14T13:45:06.217Z,56.26
2018-11-14T13:47:40.530Z,57.26
2018-11-14T13:50:16.074Z,55.28
2018-11-14T13:52:48.114Z,54.49
2018-11-14T13:55:20.509Z,55.52
2018-11-14T13:57:53.220Z,55.93
2018-11-14T14:00:25.165Z,57.36
2018-11-14T14:02:57.095Z,55.20
2018-11-14T14:05:28.732Z,54.81
2018-11-14T14:08:00.515Z,55.71
2018-11-14T14:10:32.059Z,55.97
2018-11-14T14:13:04.097Z,56.28
2018-11-14T14:15:35.702Z,55.29
2018-11-14T14:18:07.665Z,55.80
2018-11-14T14:20:40.116Z,56.26
2018-11-14T14:23:12.066Z,55.80
2018-11-14T14:25:44.681Z,56.08
2018-11-14T14:28:16.880Z,55.81
2018-11-14T14:30:49.076Z,57.21
2018-11-14T14:33:20.868Z,56.34
2018-11-14T14:35:52.701Z,56.78
2018-11-14T14:38:24.722Z,57.33
2018-11-14T14:40:57.586Z,57.81
2018-11-14T14:43:29.539Z,58.17
2018-11-14T14:46:01.856Z,58.50
2018-11-14T14:48:34.108Z,58.21
2018-11-14T14:51:06.787Z,57.14
2018-11-14T14:53:38.818Z,57.80
2018-11-14T14:56:10.455Z,57.69
2018-11-14T14:58:42.292Z,57.73
2018-11-14T15:01:14.998Z,58.09
2018-11-14T15:03:47.724Z,58.93
2018-11-14T15:06:19.641Z,63.25
2018-11-14T15:08:51.399Z,63.41
2018-11-14T15:11:23.271Z,64.57
2018-11-14T15:13:55.159Z,64.98
2018-11-14T15:16:26.731Z,61.23
2018-11-14T15:18:58.688Z,59.56
2018-11-14T15:21:30.945Z,60.14
2018-11-14T15:24:02.947Z,59.77
2018-11-14T15:26:35.366Z,60.61
2018-11-14T15:29:07.416Z,60.97
2018-11-14T15:31:39.062Z,61.12
2018-11-14T15:34:10.925Z,61.10
2018-11-14T15:36:42.847Z,60.91
2018-11-14T15:39:14.705Z,60.90
2018-11-14T15:41:46.233Z,61.63
2018-11-14T15:44:17.927Z,62.32
2018-11-14T15:46:49.461Z,60.30
2018-11-14T15:49:21.313Z,60.21
2018-11-14T15:51:53.260Z,59.94
2018-11-14T15:54:25.305Z,61.58
2018-11-14T15:56:58.252Z,62.52
2018-11-14T15:59:30.044Z,62.56
2018-11-14T16:02:01.683Z,63.48
2018-11-14T16:04:33.544Z,62.68
2018-11-14T16:07:05.160Z,63.78
2018-11-14T16:09:39.419Z,62.41
2018-11-14T16:12:11.868Z,63.69
2018-11-14T16:14:43.542Z,63.33
2018-11-14T16:17:16.052Z,63.07
2018-11-14T16:19:48.116Z,63.32
2018-11-14T16:22:20.103Z,62.47
2018-11-14T16:24:51.856Z,64.11
2018-11-14T16:27:23.954Z,63.37
2018-11-14T16:29:55.538Z,63.87
2018-11-14T16:32:26.975Z,63.60
2018-11-14T16:34:58.744Z,64.41
2018-11-14T16:37:30.745Z,63.04
2018-11-14T16:40:02.498Z,63.47
2018-11-14T16:42:35.136Z,63.60
2018-11-14T16:45:07.151Z,64.88
2018-11-14T16:47:39.092Z,63.35
2018-11-14T16:50:12.521Z,63.43
2018-11-14T16:52:44.671Z,63.41
2018-11-14T16:55:17.768Z,63.29
2018-11-14T16:57:50.248Z,63.74
2018-11-14T17:00:26.377Z,63.57
2018-11-14T17:02:58.330Z,64.12
2018-11-14T17:05:31.086Z,63.36
2018-11-14T17:08:03.668Z,63.88
2018-11-14T17:10:35.258Z,63.93
2018-11-14T17:26:48.118Z,63.90
2018-11-14T17:29:20.803Z,63.35
2018-11-14T17:31:52.600Z,62.91
2018-11-14T17:34:24.194Z,63.69
2018-11-14T17:36:56.008Z,63.85
2018-11-14T17:39:28.210Z,65.40
2018-11-14T17:42:00.479Z,64.45
2018-11-14T17:44:32.229Z,65.01
2018-11-14T17:47:04.008Z,64.41
2018-11-14T17:49:35.703Z,63.84
2018-11-14T17:52:08.419Z,64.32
2018-11-14T17:54:40.152Z,64.03
2018-11-14T17:57:11.821Z,65.45
2018-11-14T17:59:44.007Z,64.89
2018-11-14T18:02:15.612Z,64.79
2018-11-14T18:04:47.396Z,63.69
2018-11-14T18:07:19.284Z,63.32
2018-11-14T18:09:50.900Z,63.55
2018-11-14T18:12:22.507Z,63.12
2018-11-14T18:14:54.233Z,63.20
2018-11-14T18:17:26.097Z,63.16
2018-11-14T18:19:57.943Z,62.71
2018-11-14T18:22:30.097Z,63.17
2018-11-14T18:25:01.793Z,62.42
2018-11-14T18:27:33.548Z,62.93
2018-11-14T18:30:09.993Z,61.68
2018-11-14T18:32:42.519Z,61.23
2018-11-14T18:35:15.547Z,61.02
2018-11-14T18:37:51.976Z,61.43
2018-11-14T18:40:25.861Z,61.31
2018-11-14T18:42:57.403Z,61.66
2018-11-14T18:45:31.411Z,62.53
2018-11-14T18:48:03.652Z,60.84
2018-11-14T18:50:35.272Z,61.37
2018-11-14T18:53:07.030Z,62.41
2018-11-14T18:55:38.521Z,62.02
2018-11-14T18:58:10.694Z,62.58
2018-11-14T19:00:42.729Z,62.74
2018-11-14T19:03:14.845Z,62.27
2018-11-14T19:05:46.603Z,62.61
2018-11-14T19:08:18.275Z,63.44
2018-11-14T19:10:49.796Z,62.71
2018-11-14T19:13:21.391Z,64.99
2018-11-14T19:15:53.761Z,63.20
2018-11-14T19:18:25.491Z,62.28
2018-11-14T19:20:57.329Z,62.63
2018-11-14T19:23:29.140Z,62.92
2018-11-14T19:26:01.126Z,62.94
2018-11-14T19:28:34.118Z,64.34
2018-11-14T19:31:06.043Z,63.52
2018-11-14T19:33:37.792Z,63.19
2018-11-14T19:36:09.249Z,63.55
2018-11-14T19:38:40.998Z,62.67
2018-11-14T19:41:12.707Z,62.74
2018-11-14T19:43:44.589Z,64.08
2018-11-14T19:46:16.192Z,64.06
2018-11-14T19:48:47.918Z,63.01
2018-11-14T19:51:23.963Z,63.39
2018-11-14T19:53:56.672Z,62.19
2018-11-14T19:56:32.167Z,62.89
2018-11-14T19:59:04.386Z,63.29
2018-11-14T20:01:36.601Z,62.22
2018-11-14T20:04:08.234Z,63.91
2018-11-14T20:06:39.795Z,63.07
2018-11-14T20:09:12.639Z,63.72
2018-11-14T20:11:45.093Z,62.99
2018-11-14T20:14:17.525Z,62.92
2018-11-14T20:16:48.967Z,63.33
2018-11-14T20:19:20.488Z,64.81
2018-11-14T20:21:57.891Z,64.52
2018-11-14T20:24:29.525Z,63.76
2018-11-14T20:27:01.928Z,65.26
2018-11-14T20:29:34.340Z,66.24
2018-11-14T20:32:06.461Z,65.67
2018-11-14T20:34:38.115Z,65.46
2018-11-14T20:37:09.870Z,64.47
2018-11-14T20:39:41.545Z,64.48
2018-11-14T20:42:13.102Z,64.87
2018-11-14T20:44:45.806Z,65.19
2018-11-14T20:47:17.351Z,64.84
2018-11-14T20:49:48.986Z,68.23
2018-11-14T20:52:20.429Z,70.56
2018-11-14T20:54:52.278Z,70.96
2018-11-14T20:57:23.815Z,69.65
2018-11-14T20:59:56.818Z,69.19
2018-11-14T21:02:29.041Z,70.46
2018-11-14T21:05:02.177Z,69.70
2018-11-14T21:07:33.768Z,67.98
2018-11-14T21:10:08.844Z,66.52
2018-11-14T21:12:40.827Z,67.33
2018-11-14T21:15:16.579Z,66.41
2018-11-14T21:17:50.196Z,66.20
2018-11-14T21:20:22.939Z,65.43
2018-11-14T21:22:54.577Z,64.68
2018-11-14T21:25:27.120Z,65.03
2018-11-14T21:27:59.867Z,65.68
2018-11-14T21:30:32.915Z,66.02
2018-11-14T21:33:05.196Z,65.90
2018-11-14T21:35:38.008Z,65.66
2018-11-14T21:38:10.272Z,66.61
2018-11-14T21:40:42.343Z,67.69
2018-11-14T21:43:13.950Z,66.81
2018-11-14T21:45:45.625Z,66.62
2018-11-14T21:48:18.316Z,65.89
2018-11-14T21:50:50.243Z,66.54
2018-11-14T21:53:21.871Z,67.32
2018-11-14T21:55:53.659Z,68.30
2018-11-14T21:58:25.329Z,67.64
2018-11-14T22:00:56.920Z,67.81
2018-11-14T22:03:28.999Z,66.11
2018-11-14T22:06:00.781Z,65.72
2018-11-14T22:08:32.532Z,66.31
2018-11-14T22:11:04.268Z,65.95
2018-11-14T22:13:35.845Z,66.45
2018-11-14T22:16:07.548Z,66.27
2018-11-14T22:18:39.074Z,66.31
2018-11-14T22:21:10.778Z,66.25
2018-11-14T22:23:42.377Z,64.88
2018-11-14T22:26:14.115Z,65.30
2018-11-14T22:28:45.852Z,64.93
2018-11-14T22:31:18.088Z,65.25
2018-11-14T22:33:51.502Z,64.22
2018-11-14T22:36:23.196Z,64.83
2018-11-14T22:38:55.047Z,65.48
2018-11-14T22:41:26.670Z,65.37
2018-11-14T22:43:58.255Z,65.13
2018-11-14T22:46:29.997Z,65.05
2018-11-14T22:49:01.691Z,64.07
2018-11-14T22:51:33.385Z,64.38
2018-11-14T22:54:05.147Z,65.55
2018-11-14T22:56:36.918Z,65.02
2018-11-14T22:59:08.536Z,65.19
2018-11-14T23:01:40.054Z,65.45
2018-11-14T23:04:12.093Z,64.22
2018-11-14T23:06:43.803Z,65.74
2018-11-14T23:09:15.355Z,65.80
2018-11-14T23:11:47.103Z,65.84
2018-11-14T23:14:18.713Z,64.64
2018-11-14T23:16:50.573Z,64.27
2018-11-14T23:19:22.267Z,64.95
2018-11-14T23:21:54.035Z,65.04
2018-11-14T23:24:25.675Z,65.77
2018-11-14T23:26:59.373Z,66.07
2018-11-14T23:29:31.042Z,65.07
2018-11-14T23:32:03.217Z,65.36
2018-11-14T23:34:35.762Z,65.08
2018-11-14T23:37:09.416Z,64.94
2018-11-14T23:39:40.974Z,64.82
2018-11-14T23:42:12.769Z,65.32
2018-11-14T23:44:44.455Z,64.87
2018-11-14T23:47:16.042Z,65.02
2018-11-14T23:49:47.669Z,65.29
2018-11-14T23:52:19.786Z,65.41
2018-11-14T23:54:51.411Z,65.62
2018-11-14T23:57:23.191Z,65.83
2018-11-14T23:59:54.817Z,66.98
